Time;durP1;ratioP1;P1;durP2;ratioP2;P2;SDS_P1;SDS_P2;PMS_P1;PMS_P2;Temp;Humidity;BMP_temperature;BMP_pressure;BME280_temperature;BME280_humidity;BME280_pressure;Samples;Min_cycle;Max_cycle;Signal;HPM_P1;HPM_P2
2020/12/13 06:02:31;;;;;;;;;;;;;;;;;;5086037;27;20433;-59
2020/12/13 06:04:57;;;;;;;;;;;;;;;;;;5065009;28;19908;-62
2020/12/13 06:07:23;;;;;;;;;;;;;;;;;;5056971;28;19948;-59
2020/12/13 06:09:48;;;;;;;;;;;;;;;;;;5056904;28;19909;-62
2020/12/13 06:12:14;;;;;;;;;;;;;;;;;;5056595;28;19916;-59
2020/12/13 06:14:44;;;;;;;;;;;;;;;;;;5053630;28;19904;-62
2020/12/13 06:17:10;;;;;;;1.40;0.10;;;;;;;;;;5050885;28;19999;-60
2020/12/13 06:19:38;;;;;;;0.30;0.20;;;;;;;;;;5055452;28;20030;-60
2020/12/13 06:22:04;;;;;;;0.73;0.17;;;;;;;;;;5055824;28;20032;-60
2020/12/13 06:24:30;;;;;;;0.10;0.10;;;;;;;;;;5056213;28;20021;-60
2020/12/13 06:26:57;;;;;;;0.40;0.10;;;;;;;;;;5055201;28;20028;-60
2020/12/13 06:29:24;;;;;;;0.10;0.10;;;;;;;;;;5051417;28;20020;-61
2020/12/13 06:31:50;;;;;;;0.13;0.10;;;;;;;;;;5053011;28;20037;-60
2020/12/13 06:34:17;;;;;;;0.32;0.10;;;;;;;;;;5055862;28;20607;-59
2020/12/13 06:36:43;;;;;;;0.10;0.10;;;;;;;;;;5057652;28;20021;-61
2020/12/13 06:39:17;;;;;;;0.10;0.10;;;;;;;;;;5067931;28;20016;-60
2020/12/13 06:41:44;;;;;;;0.15;0.15;;;;;;;;;;5065184;28;20029;-60
2020/12/13 06:44:12;;;;;;;0.28;0.10;;;;;;;;;;5050336;28;20533;-60
2020/12/13 06:46:40;;;;;;;0.03;0.03;;;;;;;;;;5054433;28;20127;-63
2020/12/13 06:49:07;;;;;;;0.20;0.20;;;;;;;;;;5055567;28;20044;-60
2020/12/13 06:51:34;;;;;;;0.93;0.20;;;;;;;;;;5055386;28;20528;-60
2020/12/13 06:54:02;;;;;;;0.38;0.25;;;;;;;;;;5054327;28;20013;-60
2020/12/13 06:56:28;;;;;;;0.28;0.20;;;;;;;;;;5050178;28;20067;-60
2020/12/13 06:58:56;;;;;;;0.45;0.20;;;;;;;;;;5051127;28;20034;-60
2020/12/13 07:01:23;;;;;;;0.20;0.20;;;;;;;;;;5053691;28;20057;-60
2020/12/13 07:03:49;;;;;;;0.30;0.20;;;;;;;;;;5047053;28;20033;-61
2020/12/13 07:06:27;;;;;;;0.22;0.20;;;;;;;;;;5052489;28;20029;-60
2020/12/13 07:09:01;;;;;;;0.30;0.20;;;;;;;;;;5052767;28;20055;-61
2020/12/13 07:11:30;;;;;;;1.17;0.38;;;;;;;;;;5052659;28;20179;-60
2020/12/13 07:14:06;;;;;;;1.52;0.82;;;;;;;;;;5053347;28;20025;-60
2020/12/13 07:16:36;;;;;;;0.40;0.28;;;;;;;;;;5052264;28;20033;-59
2020/12/13 07:19:12;;;;;;;1.55;0.22;;;;;;;;;;5052690;28;20044;-60
2020/12/13 07:21:38;;;;;;;0.77;0.30;;;;;;;;;;5052505;28;20393;-60
2020/12/13 07:24:06;;;;;;;0.20;0.20;;;;;;;;;;5052282;28;20033;-59
2020/12/13 07:26:33;;;;;;;0.73;0.35;;;;;;;;;;5052462;28;20040;-59
2020/12/13 07:29:00;;;;;;;0.20;0.20;;;;;;;;;;5053350;28;20041;-60
2020/12/13 07:31:29;;;;;;;0.73;0.30;;;;;;;;;;5052262;28;20045;-61
2020/12/13 07:33:55;;;;;;;0.50;0.30;;;;;;;;;;5051984;28;20029;-62
2020/12/13 07:36:21;;;;;;;0.85;0.30;;;;;;;;;;5052226;28;20119;-60
2020/12/13 07:38:48;;;;;;;0.35;0.28;;;;;;;;;;5050168;28;20022;-60
2020/12/13 07:41:14;;;;;;;1.55;0.50;;;;;;;;;;5052277;28;20091;-60
2020/12/13 07:43:54;;;;;;;0.82;0.35;;;;;;;;;;5050426;28;20451;-59
2020/12/13 07:46:20;;;;;;;3.58;0.40;;;;;;;;;;5052115;28;20449;-60
2020/12/13 07:48:46;;;;;;;1.50;0.50;;;;;;;;;;5051821;28;20014;-59
2020/12/13 07:51:12;;;;;;;0.82;0.40;;;;;;;;;;5052093;28;20063;-58
2020/12/13 07:53:38;;;;;;;1.85;0.50;;;;;;;;;;5051993;28;20074;-60
2020/12/13 07:56:05;;;;;;;1.30;0.57;;;;;;;;;;5051802;28;20036;-63
2020/12/13 07:58:31;;;;;;;1.25;0.65;;;;;;;;;;5052839;28;20029;-60
2020/12/13 08:01:10;;;;;;;1.10;0.75;;;;;;;;;;5051763;28;20135;-62
2020/12/13 08:03:43;;;;;;;7.43;0.77;;;;;;;;;;5050964;28;20033;-59
2020/12/13 08:06:09;;;;;;;1.85;0.63;;;;;;;;;;5054384;28;20052;-60
2020/12/13 08:08:42;;;;;;;1.52;0.73;;;;;;;;;;5067210;28;20628;-60
2020/12/13 08:11:11;;;;;;;2.65;1.05;;;;;;;;;;5051597;28;20041;-59
2020/12/13 08:13:37;;;;;;;3.78;1.40;;;;;;;;;;5050679;28;20592;-58
2020/12/13 08:16:11;;;;;;;3.00;1.67;;;;;;;;;;5051476;28;20029;-57
2020/12/13 08:18:37;;;;;;;5.53;1.52;;;;;;;;;;5051247;28;20075;-59
2020/12/13 08:21:03;;;;;;;6.60;1.70;;;;;;;;;;5051408;28;20482;-57
2020/12/13 08:23:29;;;;;;;5.45;1.63;;;;;;;;;;5035942;28;20021;-58
2020/12/13 08:25:56;;;;;;;4.53;1.58;;;;;;;;;;5052248;28;20036;-58
2020/12/13 08:28:22;;;;;;;2.50;1.60;;;;;;;;;;5051323;28;20105;-56
2020/12/13 08:30:49;;;;;;;3.50;1.50;;;;;;;;;;5051409;28;20407;-57
2020/12/13 08:33:17;;;;;;;3.17;1.35;;;;;;;;;;5050444;28;20025;-61
2020/12/13 08:35:43;;;;;;;2.83;1.60;;;;;;;;;;5051407;28;20514;-58
2020/12/13 08:38:11;;;;;;;3.45;1.20;;;;;;;;;;5051301;28;20067;-59
2020/12/13 08:40:37;;;;;;;2.80;1.35;;;;;;;;;;5050268;28;20021;-59
2020/12/13 08:43:04;;;;;;;2.28;1.60;;;;;;;;;;5051089;28;20108;-60
2020/12/13 08:45:31;;;;;;;2.30;1.40;;;;;;;;;;5049932;28;20367;-59
2020/12/13 08:48:00;;;;;;;4.00;1.83;;;;;;;;;;5051099;28;20390;-63
2020/12/13 08:50:27;;;;;;;6.85;1.60;;;;;;;;;;5051489;28;20040;-62
2020/12/13 08:52:53;;;;;;;4.28;1.50;;;;;;;;;;5051388;28;20032;-59
2020/12/13 08:55:26;;;;;;;4.68;1.90;;;;;;;;;;5050519;28;20031;-63
2020/12/13 08:57:59;;;;;;;5.05;2.15;;;;;;;;;;5050695;28;20031;-60
2020/12/13 09:00:27;;;;;;;4.95;1.90;;;;;;;;;;5049555;28;20029;-59
2020/12/13 09:03:00;;;;;;;8.88;3.13;;;;;;;;;;5050106;28;20028;-60
2020/12/13 09:05:30;;;;;;;6.57;4.00;;;;;;;;;;5049587;28;20024;-59
2020/12/13 09:07:58;;;;;;;6.88;3.80;;;;;;;;;;5049835;28;20032;-59
2020/12/13 09:10:25;;;;;;;10.75;3.20;;;;;;;;;;5046602;28;20051;-59
2020/12/13 09:12:51;;;;;;;8.77;2.58;;;;;;;;;;5045189;28;20021;-59
2020/12/13 09:15:18;;;;;;;3.67;2.75;;;;;;;;;;5038972;28;20125;-62
2020/12/13 09:17:57;;;;;;;9.43;3.45;;;;;;;;;;5049938;28;20429;-60
2020/12/13 09:20:27;;;;;;;12.38;4.40;;;;;;;;;;5050428;28;20018;-59
2020/12/13 09:23:19;;;;;;;5.85;3.15;;;;;;;;;;5051225;28;20032;-60
2020/12/13 09:25:46;;;;;;;7.82;3.80;;;;;;;;;;5048772;28;20098;-59
2020/12/13 09:28:13;;;;;;;10.07;3.72;;;;;;;;;;5050171;28;20042;-61
2020/12/13 09:30:40;;;;;;;10.00;3.72;;;;;;;;;;5049631;28;20029;-59
2020/12/13 09:33:06;;;;;;;12.88;3.80;;;;;;;;;;5050157;28;20029;-59
2020/12/13 09:35:33;;;;;;;11.75;3.53;;;;;;;;;;5050154;28;20033;-59
2020/12/13 09:37:59;;;;;;;8.35;2.83;;;;;;;;;;5050567;28;20033;-60
2020/12/13 09:40:25;;;;;;;7.38;2.60;;;;;;;;;;5050069;28;20025;-60
2020/12/13 09:42:53;;;;;;;9.82;2.60;;;;;;;;;;5049109;28;20049;-59
2020/12/13 09:45:19;;;;;;;5.65;1.67;;;;;;;;;;5047793;28;20048;-59
2020/12/13 09:47:46;;;;;;;7.28;1.98;;;;;;;;;;5049757;28;20033;-59
2020/12/13 09:50:12;;;;;;;7.30;2.20;;;;;;;;;;5050254;28;20861;-60
2020/12/13 09:52:38;;;;;;;5.22;2.15;;;;;;;;;;5050681;28;20028;-59
2020/12/13 09:55:05;;;;;;;3.50;1.75;;;;;;;;;;5050302;28;20096;-60
2020/12/13 09:57:31;;;;;;;7.88;1.80;;;;;;;;;;5048320;28;20116;-60
2020/12/13 09:59:57;;;;;;;6.63;1.38;;;;;;;;;;5049015;28;20108;-63
2020/12/13 10:02:23;;;;;;;6.00;1.23;;;;;;;;;;5048256;28;20037;-60
2020/12/13 10:04:49;;;;;;;4.30;1.00;;;;;;;;;;5049831;28;20433;-59
2020/12/13 10:09:41;;;;;;;3.88;0.80;;;;;;;;;;5048098;28;20037;-60
2020/12/13 10:12:08;;;;;;;2.88;0.73;;;;;;;;;;5048618;28;20409;-59
2020/12/13 10:14:34;;;;;;;5.15;1.15;;;;;;;;;;5048795;28;20029;-59
2020/12/13 10:17:01;;;;;;;3.08;1.05;;;;;;;;;;5049224;28;20094;-59
2020/12/13 10:19:27;;;;;;;5.25;0.95;;;;;;;;;;5049016;28;20037;-59
2020/12/13 10:21:53;;;;;;;4.00;0.93;;;;;;;;;;5048679;28;20037;-59
2020/12/13 10:24:19;;;;;;;2.90;0.60;;;;;;;;;;5048853;28;20025;-59
2020/12/13 10:26:45;;;;;;;2.08;0.70;;;;;;;;;;5048378;28;20040;-59
2020/12/13 10:29:12;;;;;;;2.78;0.50;;;;;;;;;;5048813;28;20158;-60
2020/12/13 10:31:41;;;;;;;3.95;0.77;;;;;;;;;;5049454;28;20055;-58
2020/12/13 10:34:08;;;;;;;5.28;0.90;;;;;;;;;;5048806;28;20024;-59
2020/12/13 10:36:35;;;;;;;3.33;0.57;;;;;;;;;;5048575;28;20027;-60
2020/12/13 10:39:03;;;;;;;5.28;1.00;;;;;;;;;;5052566;28;20033;-60
2020/12/13 10:41:29;;;;;;;8.13;1.08;;;;;;;;;;5052770;28;20112;-60
2020/12/13 10:43:55;;;;;;;4.22;0.60;;;;;;;;;;5053081;28;20112;-60
2020/12/13 10:46:21;;;;;;;2.60;0.75;;;;;;;;;;5052012;28;20132;-59
2020/12/13 10:48:47;;;;;;;3.28;0.80;;;;;;;;;;5052198;28;20029;-62
2020/12/13 10:51:14;;;;;;;7.50;0.75;;;;;;;;;;5049543;28;20033;-64
2020/12/13 10:53:41;;;;;;;5.97;1.42;;;;;;;;;;5052410;28;20021;-60
2020/12/13 10:56:07;;;;;;;3.10;1.33;;;;;;;;;;5052347;28;20021;-59
2020/12/13 10:58:33;;;;;;;5.00;1.15;;;;;;;;;;5052952;28;20028;-57
2020/12/13 11:01:03;;;;;;;7.30;0.75;;;;;;;;;;5051502;28;20049;-60
2020/12/13 11:03:29;;;;;;;6.05;1.10;;;;;;;;;;5051373;28;20432;-59
2020/12/13 11:05:55;;;;;;;6.47;0.93;;;;;;;;;;5052187;28;20033;-60
2020/12/13 11:08:25;;;;;;;3.67;0.75;;;;;;;;;;5052222;28;20032;-60
2020/12/13 11:10:52;;;;;;;3.65;0.50;;;;;;;;;;5051676;28;20544;-59
2020/12/13 11:13:18;;;;;;;1.20;0.63;;;;;;;;;;5052065;28;20527;-59
2020/12/13 11:15:44;;;;;;;3.47;0.80;;;;;;;;;;5051775;28;20494;-60
2020/12/13 11:18:11;;;;;;;2.33;0.60;;;;;;;;;;5052118;28;20029;-60
2020/12/13 11:20:37;;;;;;;3.05;0.55;;;;;;;;;;5052106;28;20036;-60
2020/12/13 11:23:03;;;;;;;3.95;0.90;;;;;;;;;;5051331;28;20110;-60
2020/12/13 11:25:30;;;;;;;3.30;0.52;;;;;;;;;;5051938;28;20037;-59
2020/12/13 11:27:57;;;;;;;1.58;0.50;;;;;;;;;;5047631;28;20405;-63
2020/12/13 11:30:23;;;;;;;4.88;0.70;;;;;;;;;;5043882;28;20041;-59
2020/12/13 11:32:50;;;;;;;4.40;0.73;;;;;;;;;;5038433;28;20100;-64
2020/12/13 11:35:16;;;;;;;3.95;0.75;;;;;;;;;;5041141;28;20408;-60
2020/12/13 11:37:44;;;;;;;4.65;0.70;;;;;;;;;;5037052;28;20037;-60
2020/12/13 11:40:10;;;;;;;2.88;0.93;;;;;;;;;;5040204;28;20026;-60
2020/12/13 11:42:36;;;;;;;5.20;0.80;;;;;;;;;;5040724;28;20109;-60
2020/12/13 11:45:06;;;;;;;4.70;0.80;;;;;;;;;;5040517;28;20032;-59
2020/12/13 11:47:33;;;;;;;3.72;0.82;;;;;;;;;;5068863;28;20041;-62
2020/12/13 11:49:59;;;;;;;4.20;0.70;;;;;;;;;;5048654;28;20461;-59
2020/12/13 11:52:25;;;;;;;3.28;0.90;;;;;;;;;;5041293;28;20029;-59
2020/12/13 11:54:51;;;;;;;5.53;0.90;;;;;;;;;;5040388;28;20088;-60
2020/12/13 11:57:17;;;;;;;7.40;0.85;;;;;;;;;;5040293;28;20071;-60
2020/12/13 11:59:44;;;;;;;6.10;1.27;;;;;;;;;;5037182;28;20477;-59
2020/12/13 12:02:10;;;;;;;5.88;0.90;;;;;;;;;;5034353;28;20049;-62
2020/12/13 12:04:36;;;;;;;5.28;1.00;;;;;;;;;;5048985;28;20033;-60
2020/12/13 12:07:03;;;;;;;3.22;0.80;;;;;;;;;;5050617;28;20100;-59
2020/12/13 12:09:29;;;;;;;5.93;1.40;;;;;;;;;;5047824;28;20032;-62
2020/12/13 12:11:55;;;;;;;4.90;0.85;;;;;;;;;;5040491;28;20520;-59
2020/12/13 12:14:21;;;;;;;5.88;1.02;;;;;;;;;;5040088;28;20379;-65
2020/12/13 12:16:47;;;;;;;8.02;1.00;;;;;;;;;;5042275;28;20028;-62
2020/12/13 12:19:14;;;;;;;5.43;0.98;;;;;;;;;;5046369;28;20082;-60
2020/12/13 12:21:53;;;;;;;5.68;0.80;;;;;;;;;;5040916;28;20045;-61
2020/12/13 12:24:22;;;;;;;9.10;0.95;;;;;;;;;;5036531;28;20040;-59
2020/12/13 12:26:53;;;;;;;4.32;0.65;;;;;;;;;;5041942;28;20491;-60
2020/12/13 12:29:20;;;;;;;5.88;0.70;;;;;;;;;;5043475;28;20029;-60
2020/12/13 12:31:50;;;;;;;6.88;1.15;;;;;;;;;;5045633;28;20156;-59
2020/12/13 12:34:16;;;;;;;1.92;0.73;;;;;;;;;;5042666;28;20045;-59
2020/12/13 12:36:42;;;;;;;3.45;0.52;;;;;;;;;;5045613;28;20029;-59
2020/12/13 12:39:08;;;;;;;4.38;0.80;;;;;;;;;;5045799;28;20036;-59
2020/12/13 12:41:35;;;;;;;5.18;0.82;;;;;;;;;;5044484;28;20615;-59
2020/12/13 12:44:01;;;;;;;6.07;1.42;;;;;;;;;;5043894;28;20031;-59
2020/12/13 12:46:28;;;;;;;5.63;1.20;;;;;;;;;;5040936;28;20094;-59
2020/12/13 12:48:55;;;;;;;3.28;0.75;;;;;;;;;;5040181;28;20018;-59
2020/12/13 12:51:22;;;;;;;3.25;1.00;;;;;;;;;;5045677;28;20103;-59
2020/12/13 12:53:48;;;;;;;6.25;2.05;;;;;;;;;;5045139;28;20021;-60
2020/12/13 12:56:14;;;;;;;7.20;1.38;;;;;;;;;;5043065;28;20036;-61
2020/12/13 12:58:45;;;;;;;7.45;1.10;;;;;;;;;;5041010;28;20028;-59
2020/12/13 13:01:23;;;;;;;5.82;0.90;;;;;;;;;;5038790;28;20033;-59
2020/12/13 13:03:57;;;;;;;3.75;1.02;;;;;;;;;;5039605;28;20120;-59
2020/12/13 13:06:38;;;;;;;4.78;1.02;;;;;;;;;;5043324;28;20037;-59
2020/12/13 13:09:15;;;;;;;5.22;1.15;;;;;;;;;;5043808;28;20040;-59
2020/12/13 13:11:41;;;;;;;6.43;1.20;;;;;;;;;;5041404;28;20190;-59
2020/12/13 13:14:10;;;;;;;4.53;1.13;;;;;;;;;;5043584;28;20624;-59
2020/12/13 13:16:37;;;;;;;7.32;1.23;;;;;;;;;;5042005;28;20033;-59
2020/12/13 13:19:05;;;;;;;9.27;1.00;;;;;;;;;;5045635;28;20055;-59
2020/12/13 13:21:42;;;;;;;4.97;0.90;;;;;;;;;;5049332;28;20489;-59
2020/12/13 13:24:10;;;;;;;8.38;1.27;;;;;;;;;;5044855;28;20116;-58
2020/12/13 13:26:37;;;;;;;3.63;1.00;;;;;;;;;;5050715;28;20031;-59
2020/12/13 13:29:03;;;;;;;9.05;1.10;;;;;;;;;;5035280;28;20037;-59
2020/12/13 13:31:29;;;;;;;6.13;1.50;;;;;;;;;;5039077;28;20045;-59
2020/12/13 13:33:55;;;;;;;5.57;0.90;;;;;;;;;;5045521;28;20035;-60
2020/12/13 13:36:22;;;;;;;5.93;0.90;;;;;;;;;;5049801;28;20079;-59
2020/12/13 13:38:49;;;;;;;3.03;0.80;;;;;;;;;;5050402;28;20417;-59
2020/12/13 13:41:21;;;;;;;5.18;0.82;;;;;;;;;;5050192;28;20037;-59
2020/12/13 13:43:50;;;;;;;5.82;0.70;;;;;;;;;;5049538;28;20082;-59
2020/12/13 13:51:33;;;;;;;6.68;0.80;;;;;;;;;;5049630;28;20083;-59
2020/12/13 13:54:02;;;;;;;8.70;0.90;;;;;;;;;;5050008;28;20378;-59
2020/12/13 13:56:38;;;;;;;5.32;1.23;;;;;;;;;;5049454;28;20059;-59
2020/12/13 13:59:04;;;;;;;2.05;0.52;;;;;;;;;;5046409;28;20021;-59
2020/12/13 14:01:33;;;;;;;4.05;1.05;;;;;;;;;;5049550;28;20052;-59
2020/12/13 14:04:01;;;;;;;4.80;0.80;;;;;;;;;;5049614;28;20119;-60
2020/12/13 14:09:11;;;;;;;2.08;0.60;;;;;;;;;;5049312;28;20043;-59
2020/12/13 14:11:37;;;;;;;1.75;0.50;;;;;;;;;;5049682;28;20422;-59
2020/12/13 14:14:03;;;;;;;3.03;0.60;;;;;;;;;;5054267;28;20025;-59
2020/12/13 14:16:30;;;;;;;1.90;0.73;;;;;;;;;;5053032;28;20032;-59
2020/12/13 14:18:56;;;;;;;3.55;0.80;;;;;;;;;;5053541;28;20021;-57
2020/12/13 14:21:22;;;;;;;1.88;0.65;;;;;;;;;;5053182;28;20536;-59
2020/12/13 14:23:48;;;;;;;4.03;0.70;;;;;;;;;;5053741;28;20410;-59
2020/12/13 14:26:15;;;;;;;3.00;0.85;;;;;;;;;;5053649;28;20017;-59
2020/12/13 14:28:41;;;;;;;2.30;0.80;;;;;;;;;;5054062;28;20025;-59
2020/12/13 14:31:07;;;;;;;3.20;0.50;;;;;;;;;;5052000;28;20390;-59
2020/12/13 14:33:34;;;;;;;1.60;0.60;;;;;;;;;;5052923;28;20042;-59
2020/12/13 14:36:00;;;;;;;4.65;0.60;;;;;;;;;;5052820;28;20017;-61
2020/12/13 14:38:26;;;;;;;3.25;0.60;;;;;;;;;;5053096;28;20029;-59
2020/12/13 14:40:53;;;;;;;5.03;1.00;;;;;;;;;;5053670;28;20068;-59
2020/12/13 14:43:19;;;;;;;4.38;1.05;;;;;;;;;;5052781;28;20017;-59
2020/12/13 14:45:45;;;;;;;1.55;0.65;;;;;;;;;;5052888;28;20040;-59
2020/12/13 14:48:11;;;;;;;2.85;1.27;;;;;;;;;;5050270;28;20025;-59
2020/12/13 14:50:38;;;;;;;3.28;1.02;;;;;;;;;;5052604;28;20043;-59
2020/12/13 14:53:07;;;;;;;2.75;0.90;;;;;;;;;;5053427;28;20025;-59
2020/12/13 14:55:36;;;;;;;4.97;1.05;;;;;;;;;;5053206;28;20020;-59
2020/12/13 14:58:02;;;;;;;2.20;0.88;;;;;;;;;;5052467;28;20021;-59
2020/12/13 15:00:28;;;;;;;1.85;1.05;;;;;;;;;;5051958;28;20120;-59
2020/12/13 15:02:54;;;;;;;2.97;1.27;;;;;;;;;;5052514;28;20603;-59
2020/12/13 15:05:21;;;;;;;2.95;1.15;;;;;;;;;;5053155;28;20111;-59
2020/12/13 15:07:47;;;;;;;2.08;0.68;;;;;;;;;;5053580;28;20036;-59
2020/12/13 15:10:13;;;;;;;1.17;0.60;;;;;;;;;;5051863;28;20017;-59
2020/12/13 15:12:40;;;;;;;1.73;0.55;;;;;;;;;;5052659;28;20067;-59
2020/12/13 15:17:38;;;;;;;4.00;0.50;;;;;;;;;;5051785;28;20641;-59
2020/12/13 15:20:04;;;;;;;1.15;0.57;;;;;;;;;;5049970;28;20120;-59
2020/12/13 15:22:31;;;;;;;2.83;0.60;;;;;;;;;;5053190;28;20070;-59
2020/12/13 15:24:57;;;;;;;1.27;0.60;;;;;;;;;;5052505;28;20029;-61
2020/12/13 15:27:23;;;;;;;2.28;0.40;;;;;;;;;;5049363;28;20492;-59
2020/12/13 15:29:49;;;;;;;1.90;0.82;;;;;;;;;;5052586;28;20104;-59
2020/12/13 15:32:16;;;;;;;2.35;0.47;;;;;;;;;;5052168;28;20087;-59
2020/12/13 15:34:42;;;;;;;0.70;0.35;;;;;;;;;;5052886;28;20517;-59
2020/12/13 15:37:08;;;;;;;1.02;0.45;;;;;;;;;;5052053;28;20029;-60
2020/12/13 15:39:34;;;;;;;2.47;0.75;;;;;;;;;;5051766;28;20028;-60
2020/12/13 15:42:00;;;;;;;2.30;0.70;;;;;;;;;;5052126;28;20179;-60
2020/12/13 15:44:27;;;;;;;1.50;0.73;;;;;;;;;;5052252;28;20029;-59
2020/12/13 15:46:54;;;;;;;5.40;0.73;;;;;;;;;;5052240;28;20091;-59
2020/12/13 15:49:20;;;;;;;2.55;0.75;;;;;;;;;;5051703;28;20425;-58
2020/12/13 15:51:46;;;;;;;4.15;1.10;;;;;;;;;;5051980;28;20405;-58
2020/12/13 15:54:12;;;;;;;3.20;0.93;;;;;;;;;;5051631;28;20029;-59
2020/12/13 15:56:38;;;;;;;6.93;1.80;;;;;;;;;;5051846;28;20391;-57
2020/12/13 15:59:04;;;;;;;5.38;1.40;;;;;;;;;;5052268;28;20029;-65
2020/12/13 16:01:31;;;;;;;4.85;1.70;;;;;;;;;;5050195;28;20045;-65
2020/12/13 16:03:59;;;;;;;3.47;1.40;;;;;;;;;;5043454;28;20025;-55
2020/12/13 16:06:26;;;;;;;10.77;1.48;;;;;;;;;;5045859;28;20474;-58
2020/12/13 16:08:55;;;;;;;4.72;1.63;;;;;;;;;;5035916;28;20017;-57
2020/12/13 16:11:22;;;;;;;5.50;0.95;;;;;;;;;;5047265;28;20075;-57
2020/12/13 16:13:48;;;;;;;6.65;1.38;;;;;;;;;;5044882;28;20017;-57
2020/12/13 16:16:14;;;;;;;5.95;1.33;;;;;;;;;;5043454;28;20047;-58
2020/12/13 16:18:40;;;;;;;5.22;1.30;;;;;;;;;;5044215;28;20163;-60
2020/12/13 16:21:06;;;;;;;4.75;0.90;;;;;;;;;;5044250;28;20057;-58
2020/12/13 16:23:33;;;;;;;2.55;0.70;;;;;;;;;;5048366;28;20025;-59
2020/12/13 16:25:59;;;;;;;8.05;1.00;;;;;;;;;;5044729;28;20055;-57
2020/12/13 16:28:25;;;;;;;3.85;0.95;;;;;;;;;;5043527;28;20021;-58
2020/12/13 16:30:52;;;;;;;5.68;1.67;;;;;;;;;;5043681;28;20033;-58
2020/12/13 16:33:18;;;;;;;3.85;0.70;;;;;;;;;;5043971;28;20037;-58
2020/12/13 16:35:45;;;;;;;3.03;0.75;;;;;;;;;;5046225;28;20459;-57
2020/12/13 16:38:13;;;;;;;5.35;1.13;;;;;;;;;;5035093;28;20048;-56
2020/12/13 16:40:43;;;;;;;3.95;1.02;;;;;;;;;;5044118;28;20037;-58
2020/12/13 16:45:57;;;;;;;4.65;1.67;;;;;;;;;;5043447;28;20036;-59
2020/12/13 16:48:38;;;;;;;4.50;1.67;;;;;;;;;;5043657;28;20076;-57
2020/12/13 16:51:18;;;;;;;4.75;1.95;;;;;;;;;;5043757;28;20091;-59
2020/12/13 16:54:06;;;;;;;4.13;1.92;;;;;;;;;;5042731;28;20048;-58
2020/12/13 16:56:32;;;;;;;3.90;1.50;;;;;;;;;;5042777;28;20421;-58
2020/12/13 16:58:59;;;;;;;2.45;1.20;;;;;;;;;;5044140;28;20067;-58
2020/12/13 17:01:26;;;;;;;3.50;1.50;;;;;;;;;;5043189;28;20059;-59
2020/12/13 17:03:53;;;;;;;3.92;1.23;;;;;;;;;;5042752;28;20035;-59
2020/12/13 17:06:19;;;;;;;5.45;1.48;;;;;;;;;;5035401;28;20025;-58
2020/12/13 17:08:46;;;;;;;5.28;0.93;;;;;;;;;;5049423;28;20037;-58
2020/12/13 17:11:12;;;;;;;3.78;1.40;;;;;;;;;;5038034;28;20068;-68
2020/12/13 17:13:40;;;;;;;3.28;0.90;;;;;;;;;;5045937;28;20029;-59
2020/12/13 17:16:07;;;;;;;4.93;1.10;;;;;;;;;;5047269;28;20037;-57
2020/12/13 17:18:33;;;;;;;3.60;0.73;;;;;;;;;;5045646;28;20020;-54
2020/12/13 17:20:59;;;;;;;7.82;1.23;;;;;;;;;;5049358;28;20029;-55
2020/12/13 17:23:25;;;;;;;7.05;1.30;;;;;;;;;;5049955;28;20029;-58
2020/12/13 17:25:51;;;;;;;5.28;1.23;;;;;;;;;;5050744;28;20409;-57
2020/12/13 17:28:18;;;;;;;9.75;1.05;;;;;;;;;;5049698;28;20375;-56
2020/12/13 17:30:45;;;;;;;5.80;1.10;;;;;;;;;;5049912;28;20031;-58
2020/12/13 17:33:11;;;;;;;3.97;1.00;;;;;;;;;;5049839;28;20020;-57
2020/12/13 17:35:37;;;;;;;9.02;1.23;;;;;;;;;;5049682;28;20029;-55
2020/12/13 17:38:03;;;;;;;6.53;1.15;;;;;;;;;;5050640;28;20447;-56
2020/12/13 17:40:29;;;;;;;11.65;1.73;;;;;;;;;;5049686;28;20029;-57
2020/12/13 17:42:59;;;;;;;8.48;1.25;;;;;;;;;;5049495;28;20107;-56
2020/12/13 17:45:25;;;;;;;9.13;1.73;;;;;;;;;;5040852;28;20406;-56
2020/12/13 17:47:53;;;;;;;6.80;1.30;;;;;;;;;;5049924;28;20390;-54
2020/12/13 17:55:38;;;;;;;6.85;1.23;;;;;;;;;;5049749;28;20029;-56
2020/12/13 17:58:05;;;;;;;10.63;1.80;;;;;;;;;;5043749;28;20462;-55
2020/12/13 18:00:32;;;;;;;12.77;2.72;;;;;;;;;;5048741;28;20021;-54
2020/12/13 18:03:02;;;;;;;9.93;1.63;;;;;;;;;;5049372;28;20087;-54
2020/12/13 18:05:28;;;;;;;12.63;2.13;;;;;;;;;;5049393;28;20029;-53
2020/12/13 18:07:54;;;;;;;12.48;1.85;;;;;;;;;;5050874;28;20037;-56
2020/12/13 18:10:21;;;;;;;11.40;1.65;;;;;;;;;;5049711;28;20037;-57
2020/12/13 18:12:50;;;;;;;11.48;1.80;;;;;;;;;;5049578;28;20029;-57
2020/12/13 18:15:16;;;;;;;17.65;2.55;;;;;;;;;;5049792;28;20078;-56
2020/12/13 18:17:42;;;;;;;12.85;2.15;;;;;;;;;;5050129;28;20107;-55
2020/12/13 18:20:08;;;;;;;18.30;2.33;;;;;;;;;;5049544;28;20083;-57
2020/12/13 18:22:42;;;;;;;16.83;2.63;;;;;;;;;;5050514;28;20112;-55
2020/12/13 18:25:08;;;;;;;12.02;2.20;;;;;;;;;;5048524;28;20086;-56
2020/12/13 18:27:34;;;;;;;14.25;2.50;;;;;;;;;;5049129;28;20056;-55
2020/12/13 18:30:02;;;;;;;16.23;2.50;;;;;;;;;;5048051;28;20087;-57
2020/12/13 18:32:28;;;;;;;15.25;3.00;;;;;;;;;;5049054;28;20325;-57
2020/12/13 18:34:55;;;;;;;19.30;2.58;;;;;;;;;;5049856;28;20033;-56
2020/12/13 18:37:22;;;;;;;18.33;2.60;;;;;;;;;;5047976;28;20107;-58
2020/12/13 18:39:49;;;;;;;12.40;2.13;;;;;;;;;;5049218;28;20040;-56
2020/12/13 18:42:15;;;;;;;17.45;2.88;;;;;;;;;;5048235;28;20048;-56
2020/12/13 18:44:42;;;;;;;18.40;3.10;;;;;;;;;;5046607;28;20032;-56
2020/12/13 18:47:08;;;;;;;14.52;2.13;;;;;;;;;;5049281;28;20328;-55
2020/12/13 18:49:34;;;;;;;17.00;3.00;;;;;;;;;;5049261;28;20124;-57
2020/12/13 18:52:01;;;;;;;13.80;2.72;;;;;;;;;;5048569;28;20065;-59
2020/12/13 18:54:27;;;;;;;19.45;4.32;;;;;;;;;;5048716;28;20103;-56
2020/12/13 18:56:53;;;;;;;18.42;2.25;;;;;;;;;;5048375;28;20104;-55
2020/12/13 18:59:21;;;;;;;21.27;2.70;;;;;;;;;;5051776;28;20036;-58
2020/12/13 19:01:54;;;;;;;25.23;3.70;;;;;;;;;;5053244;28;20126;-56
2020/12/13 19:04:28;;;;;;;19.08;3.20;;;;;;;;;;5051951;28;20013;-57
2020/12/13 19:06:57;;;;;;;23.75;3.25;;;;;;;;;;5047438;28;20410;-57
2020/12/13 19:09:25;;;;;;;21.25;3.60;;;;;;;;;;5048120;28;20512;-57
2020/12/13 19:11:54;;;;;;;28.17;4.07;;;;;;;;;;5052190;28;20037;-57
2020/12/13 19:14:20;;;;;;;27.85;3.47;;;;;;;;;;5047457;28;20122;-59
2020/12/13 19:16:50;;;;;;;25.55;4.78;;;;;;;;;;5044240;28;20037;-58
2020/12/13 19:19:16;;;;;;;25.17;3.50;;;;;;;;;;5043829;28;20236;-65
2020/12/13 19:21:43;;;;;;;21.42;3.65;;;;;;;;;;5044899;28;20028;-58
2020/12/13 19:24:09;;;;;;;24.27;3.60;;;;;;;;;;5047321;28;20106;-59
2020/12/13 19:26:35;;;;;;;28.90;3.63;;;;;;;;;;5044290;28;20025;-59
2020/12/13 19:29:01;;;;;;;27.90;5.10;;;;;;;;;;5050446;28;20028;-59
2020/12/13 19:31:27;;;;;;;27.48;4.15;;;;;;;;;;5049106;28;20457;-61
2020/12/13 19:33:53;;;;;;;25.58;4.55;;;;;;;;;;5049814;28;20044;-60
2020/12/13 19:36:22;;;;;;;24.20;3.60;;;;;;;;;;5051465;28;20451;-59
2020/12/13 19:38:48;;;;;;;26.58;4.13;;;;;;;;;;5049373;28;20017;-59
2020/12/13 19:41:14;;;;;;;29.63;4.40;;;;;;;;;;5051262;28;20056;-59
2020/12/13 19:43:41;;;;;;;22.52;3.75;;;;;;;;;;5052621;28;20113;-59
2020/12/13 19:46:08;;;;;;;22.88;3.83;;;;;;;;;;5050795;28;20052;-60
2020/12/13 19:48:34;;;;;;;24.02;4.57;;;;;;;;;;5054058;28;20021;-59
2020/12/13 19:51:00;;;;;;;28.13;4.30;;;;;;;;;;5056326;28;20045;-59
2020/12/13 19:53:26;;;;;;;29.67;4.75;;;;;;;;;;5056841;28;20021;-59
2020/12/13 19:55:53;;;;;;;35.28;5.25;;;;;;;;;;5056637;28;20033;-59
2020/12/13 19:58:20;;;;;;;36.05;5.90;;;;;;;;;;5052065;28;20055;-60
2020/12/13 20:00:47;;;;;;;23.63;4.53;;;;;;;;;;5052794;28;20033;-60
2020/12/13 20:03:14;;;;;;;26.10;4.15;;;;;;;;;;5058598;28;20060;-61
2020/12/13 20:05:42;;;;;;;31.38;5.70;;;;;;;;;;5056123;28;20018;-59
2020/12/13 20:08:08;;;;;;;25.98;5.38;;;;;;;;;;5054511;28;20060;-59
2020/12/13 20:10:35;;;;;;;28.42;5.60;;;;;;;;;;5058154;28;20035;-60
2020/12/13 20:13:03;;;;;;;32.35;5.35;;;;;;;;;;5055781;28;20091;-59
2020/12/13 20:29:38;;;;;;;31.83;5.20;;;;;;;;;;5054711;28;20028;-61
2020/12/13 21:19:20;;;;;;;33.38;5.63;;;;;;;;;;5065423;28;20112;-61
2020/12/13 21:21:51;;;;;;;37.83;5.93;;;;;;;;;;5065214;28;20044;-59
